sensor_id;sensor_type;location;lat;lon;timestamp;P1;durP1;ratioP1;P2;durP2;ratioP2
20727;SDS011;10525;50.154;8.198;2023-04-25T00:02:15;12.95;;;8.38;;
20727;SDS011;10525;50.154;8.198;2023-04-25T00:04:42;14.02;;;9.25;;
20727;SDS011;10525;50.154;8.198;2023-04-25T00:07:10;16.45;;;8.68;;
20727;SDS011;10525;50.154;8.198;2023-04-25T00:09:37;13.25;;;9.60;;
20727;SDS011;10525;50.154;8.198;2023-04-25T00:12:04;15.55;;;9.05;;
20727;SDS011;10525;50.154;8.198;2023-04-25T00:14:33;13.30;;;8.20;;
20727;SDS011;10525;50.154;8.198;2023-04-25T00:17:00;12.35;;;8.93;;
20727;SDS011;10525;50.154;8.198;2023-04-25T00:19:27;14.13;;;9.07;;
20727;SDS011;10525;50.154;8.198;2023-04-25T00:21:55;14.15;;;9.38;;
20727;SDS011;10525;50.154;8.198;2023-04-25T00:24:22;12.93;;;8.55;;
20727;SDS011;10525;50.154;8.198;2023-04-25T00:26:49;11.63;;;8.30;;
20727;SDS011;10525;50.154;8.198;2023-04-25T00:29:16;12.85;;;8.82;;
20727;SDS011;10525;50.154;8.198;2023-04-25T00:31:44;12.02;;;8.18;;
20727;SDS011;10525;50.154;8.198;2023-04-25T00:34:11;17.77;;;9.23;;
20727;SDS011;10525;50.154;8.198;2023-04-25T00:36:38;18.13;;;8.65;;
20727;SDS011;10525;50.154;8.198;2023-04-25T00:39:06;19.55;;;9.70;;
20727;SDS011;10525;50.154;8.198;2023-04-25T00:41:33;18.05;;;8.93;;
20727;SDS011;10525;50.154;8.198;2023-04-25T00:44:00;14.68;;;9.95;;
20727;SDS011;10525;50.154;8.198;2023-04-25T00:46:28;15.05;;;9.57;;
20727;SDS011;10525;50.154;8.198;2023-04-25T00:48:56;17.85;;;9.85;;
20727;SDS011;10525;50.154;8.198;2023-04-25T00:51:23;16.88;;;9.90;;
20727;SDS011;10525;50.154;8.198;2023-04-25T00:53:51;19.35;;;9.85;;
20727;SDS011;10525;50.154;8.198;2023-04-25T00:56:18;15.20;;;9.85;;
20727;SDS011;10525;50.154;8.198;2023-04-25T00:58:46;18.27;;;10.77;;
20727;SDS011;10525;50.154;8.198;2023-04-25T01:01:13;18.88;;;10.52;;
20727;SDS011;10525;50.154;8.198;2023-04-25T01:03:41;16.92;;;10.43;;
20727;SDS011;10525;50.154;8.198;2023-04-25T01:06:11;19.13;;;11.00;;
20727;SDS011;10525;50.154;8.198;2023-04-25T01:08:38;20.05;;;10.68;;
20727;SDS011;10525;50.154;8.198;2023-04-25T01:11:05;17.75;;;10.75;;
20727;SDS011;10525;50.154;8.198;2023-04-25T01:13:33;19.42;;;10.90;;
20727;SDS011;10525;50.154;8.198;2023-04-25T01:16:00;18.63;;;10.35;;
20727;SDS011;10525;50.154;8.198;2023-04-25T01:18:28;17.83;;;10.60;;
20727;SDS011;10525;50.154;8.198;2023-04-25T01:20:55;20.40;;;11.43;;
20727;SDS011;10525;50.154;8.198;2023-04-25T01:23:23;22.70;;;11.30;;
20727;SDS011;10525;50.154;8.198;2023-04-25T01:25:50;18.08;;;11.45;;
20727;SDS011;10525;50.154;8.198;2023-04-25T01:28:17;26.55;;;12.48;;
20727;SDS011;10525;50.154;8.198;2023-04-25T01:30:45;21.58;;;11.35;;
20727;SDS011;10525;50.154;8.198;2023-04-25T01:33:13;21.38;;;12.05;;
20727;SDS011;10525;50.154;8.198;2023-04-25T01:35:40;20.02;;;12.20;;
20727;SDS011;10525;50.154;8.198;2023-04-25T01:38:08;24.50;;;11.35;;
20727;SDS011;10525;50.154;8.198;2023-04-25T01:40:36;21.17;;;11.90;;
20727;SDS011;10525;50.154;8.198;2023-04-25T01:43:05;19.67;;;11.30;;
20727;SDS011;10525;50.154;8.198;2023-04-25T01:45:33;22.85;;;12.68;;
20727;SDS011;10525;50.154;8.198;2023-04-25T01:48:01;22.65;;;11.32;;
20727;SDS011;10525;50.154;8.198;2023-04-25T01:50:28;21.45;;;11.48;;
20727;SDS011;10525;50.154;8.198;2023-04-25T01:52:55;21.85;;;11.55;;
20727;SDS011;10525;50.154;8.198;2023-04-25T01:55:23;22.38;;;11.45;;
20727;SDS011;10525;50.154;8.198;2023-04-25T01:57:51;25.17;;;11.07;;
20727;SDS011;10525;50.154;8.198;2023-04-25T02:00:18;20.63;;;11.55;;
20727;SDS011;10525;50.154;8.198;2023-04-25T02:02:45;18.05;;;10.60;;
20727;SDS011;10525;50.154;8.198;2023-04-25T02:05:13;17.30;;;11.07;;
20727;SDS011;10525;50.154;8.198;2023-04-25T02:07:40;21.45;;;9.93;;
20727;SDS011;10525;50.154;8.198;2023-04-25T02:10:07;18.58;;;9.85;;
20727;SDS011;10525;50.154;8.198;2023-04-25T02:12:35;21.27;;;10.15;;
20727;SDS011;10525;50.154;8.198;2023-04-25T02:15:04;26.38;;;10.98;;
20727;SDS011;10525;50.154;8.198;2023-04-25T02:17:31;23.00;;;11.48;;
20727;SDS011;10525;50.154;8.198;2023-04-25T02:19:58;18.88;;;10.77;;
20727;SDS011;10525;50.154;8.198;2023-04-25T02:22:25;22.25;;;10.70;;
20727;SDS011;10525;50.154;8.198;2023-04-25T02:24:55;18.98;;;10.50;;
20727;SDS011;10525;50.154;8.198;2023-04-25T02:27:22;24.65;;;10.75;;
20727;SDS011;10525;50.154;8.198;2023-04-25T02:29:50;20.00;;;10.00;;
20727;SDS011;10525;50.154;8.198;2023-04-25T02:32:18;21.77;;;10.10;;
20727;SDS011;10525;50.154;8.198;2023-04-25T02:34:45;25.00;;;10.40;;
20727;SDS011;10525;50.154;8.198;2023-04-25T02:37:13;19.27;;;10.35;;
20727;SDS011;10525;50.154;8.198;2023-04-25T02:39:40;24.63;;;10.45;;
20727;SDS011;10525;50.154;8.198;2023-04-25T02:42:07;21.08;;;10.80;;
20727;SDS011;10525;50.154;8.198;2023-04-25T02:44:34;22.10;;;10.15;;
20727;SDS011;10525;50.154;8.198;2023-04-25T02:47:01;26.23;;;10.65;;
20727;SDS011;10525;50.154;8.198;2023-04-25T02:49:29;30.13;;;11.02;;
20727;SDS011;10525;50.154;8.198;2023-04-25T02:51:56;25.70;;;11.40;;
20727;SDS011;10525;50.154;8.198;2023-04-25T02:54:23;26.75;;;12.55;;
20727;SDS011;10525;50.154;8.198;2023-04-25T02:56:50;17.98;;;10.48;;
20727;SDS011;10525;50.154;8.198;2023-04-25T02:59:18;25.45;;;10.57;;
20727;SDS011;10525;50.154;8.198;2023-04-25T03:01:45;19.67;;;10.82;;
20727;SDS011;10525;50.154;8.198;2023-04-25T03:04:12;21.40;;;11.27;;
20727;SDS011;10525;50.154;8.198;2023-04-25T03:06:40;31.25;;;11.05;;
20727;SDS011;10525;50.154;8.198;2023-04-25T03:09:07;22.60;;;10.90;;
20727;SDS011;10525;50.154;8.198;2023-04-25T03:11:34;24.55;;;9.93;;
20727;SDS011;10525;50.154;8.198;2023-04-25T03:14:01;22.67;;;11.23;;
20727;SDS011;10525;50.154;8.198;2023-04-25T03:16:28;29.17;;;12.00;;
20727;SDS011;10525;50.154;8.198;2023-04-25T03:18:55;24.85;;;11.38;;
20727;SDS011;10525;50.154;8.198;2023-04-25T03:21:23;23.63;;;11.98;;
20727;SDS011;10525;50.154;8.198;2023-04-25T03:23:51;26.85;;;10.90;;
20727;SDS011;10525;50.154;8.198;2023-04-25T03:26:18;24.20;;;11.38;;
20727;SDS011;10525;50.154;8.198;2023-04-25T03:28:45;29.05;;;11.75;;
20727;SDS011;10525;50.154;8.198;2023-04-25T03:31:12;32.00;;;11.50;;
20727;SDS011;10525;50.154;8.198;2023-04-25T03:33:39;34.33;;;13.05;;
20727;SDS011;10525;50.154;8.198;2023-04-25T03:36:07;35.67;;;11.48;;
20727;SDS011;10525;50.154;8.198;2023-04-25T03:38:34;26.92;;;11.77;;
20727;SDS011;10525;50.154;8.198;2023-04-25T03:41:03;25.60;;;11.35;;
20727;SDS011;10525;50.154;8.198;2023-04-25T03:43:30;27.58;;;11.20;;
20727;SDS011;10525;50.154;8.198;2023-04-25T03:45:57;24.77;;;11.77;;
20727;SDS011;10525;50.154;8.198;2023-04-25T03:48:24;26.40;;;10.27;;
20727;SDS011;10525;50.154;8.198;2023-04-25T03:50:51;24.15;;;10.70;;
20727;SDS011;10525;50.154;8.198;2023-04-25T03:53:19;20.50;;;10.43;;
20727;SDS011;10525;50.154;8.198;2023-04-25T03:55:46;24.40;;;10.60;;
20727;SDS011;10525;50.154;8.198;2023-04-25T03:58:14;31.48;;;9.25;;
20727;SDS011;10525;50.154;8.198;2023-04-25T04:00:41;24.33;;;9.50;;
20727;SDS011;10525;50.154;8.198;2023-04-25T04:03:08;27.40;;;9.17;;
20727;SDS011;10525;50.154;8.198;2023-04-25T04:05:36;25.90;;;9.13;;
20727;SDS011;10525;50.154;8.198;2023-04-25T04:08:05;26.20;;;9.13;;
20727;SDS011;10525;50.154;8.198;2023-04-25T04:10:32;23.03;;;8.27;;
20727;SDS011;10525;50.154;8.198;2023-04-25T04:12:59;22.77;;;8.43;;
20727;SDS011;10525;50.154;8.198;2023-04-25T04:15:28;26.63;;;8.60;;
20727;SDS011;10525;50.154;8.198;2023-04-25T04:17:57;28.85;;;8.85;;
20727;SDS011;10525;50.154;8.198;2023-04-25T04:20:27;19.55;;;8.65;;
20727;SDS011;10525;50.154;8.198;2023-04-25T04:22:54;20.37;;;8.17;;
20727;SDS011;10525;50.154;8.198;2023-04-25T04:25:21;21.95;;;8.23;;
20727;SDS011;10525;50.154;8.198;2023-04-25T04:27:49;21.63;;;8.63;;
20727;SDS011;10525;50.154;8.198;2023-04-25T04:30:19;25.45;;;9.20;;
20727;SDS011;10525;50.154;8.198;2023-04-25T04:32:47;21.80;;;8.50;;
20727;SDS011;10525;50.154;8.198;2023-04-25T04:35:15;22.37;;;8.77;;
20727;SDS011;10525;50.154;8.198;2023-04-25T04:37:42;25.80;;;8.80;;
20727;SDS011;10525;50.154;8.198;2023-04-25T04:40:10;25.23;;;8.80;;
20727;SDS011;10525;50.154;8.198;2023-04-25T04:42:40;20.67;;;8.73;;
20727;SDS011;10525;50.154;8.198;2023-04-25T04:45:07;21.43;;;8.70;;
20727;SDS011;10525;50.154;8.198;2023-04-25T04:47:34;24.50;;;9.85;;
20727;SDS011;10525;50.154;8.198;2023-04-25T04:50:03;32.50;;;9.50;;
20727;SDS011;10525;50.154;8.198;2023-04-25T04:52:32;28.00;;;9.73;;
20727;SDS011;10525;50.154;8.198;2023-04-25T04:54:59;20.42;;;8.05;;
20727;SDS011;10525;50.154;8.198;2023-04-25T04:57:28;27.50;;;8.90;;
20727;SDS011;10525;50.154;8.198;2023-04-25T04:59:55;36.38;;;10.15;;
20727;SDS011;10525;50.154;8.198;2023-04-25T05:02:23;19.08;;;8.02;;
20727;SDS011;10525;50.154;8.198;2023-04-25T05:04:50;28.30;;;10.18;;
20727;SDS011;10525;50.154;8.198;2023-04-25T05:07:18;28.65;;;8.80;;
20727;SDS011;10525;50.154;8.198;2023-04-25T05:09:46;25.88;;;9.93;;
20727;SDS011;10525;50.154;8.198;2023-04-25T05:12:13;30.17;;;8.43;;
20727;SDS011;10525;50.154;8.198;2023-04-25T05:14:40;24.40;;;8.25;;
20727;SDS011;10525;50.154;8.198;2023-04-25T05:17:07;31.40;;;7.97;;
20727;SDS011;10525;50.154;8.198;2023-04-25T05:19:34;22.88;;;8.02;;
20727;SDS011;10525;50.154;8.198;2023-04-25T05:22:01;32.97;;;9.25;;
20727;SDS011;10525;50.154;8.198;2023-04-25T05:24:29;20.90;;;8.18;;
20727;SDS011;10525;50.154;8.198;2023-04-25T05:26:56;22.05;;;9.10;;
20727;SDS011;10525;50.154;8.198;2023-04-25T05:29:24;25.58;;;7.68;;
20727;SDS011;10525;50.154;8.198;2023-04-25T05:31:51;21.38;;;8.82;;
20727;SDS011;10525;50.154;8.198;2023-04-25T05:34:18;18.50;;;8.20;;
20727;SDS011;10525;50.154;8.198;2023-04-25T05:36:45;22.38;;;8.15;;
20727;SDS011;10525;50.154;8.198;2023-04-25T05:39:13;25.55;;;8.23;;
20727;SDS011;10525;50.154;8.198;2023-04-25T05:41:42;18.17;;;7.88;;
20727;SDS011;10525;50.154;8.198;2023-04-25T05:44:09;19.25;;;8.63;;
20727;SDS011;10525;50.154;8.198;2023-04-25T05:46:36;16.23;;;7.43;;
20727;SDS011;10525;50.154;8.198;2023-04-25T05:49:03;20.98;;;7.22;;
20727;SDS011;10525;50.154;8.198;2023-04-25T05:51:30;17.52;;;7.72;;
20727;SDS011;10525;50.154;8.198;2023-04-25T05:53:57;23.10;;;8.63;;
20727;SDS011;10525;50.154;8.198;2023-04-25T05:56:24;19.90;;;6.50;;
20727;SDS011;10525;50.154;8.198;2023-04-25T05:58:53;15.55;;;7.05;;
20727;SDS011;10525;50.154;8.198;2023-04-25T06:01:21;17.70;;;6.15;;
20727;SDS011;10525;50.154;8.198;2023-04-25T06:03:48;12.30;;;6.10;;
20727;SDS011;10525;50.154;8.198;2023-04-25T06:06:16;18.17;;;6.65;;
20727;SDS011;10525;50.154;8.198;2023-04-25T06:08:43;14.68;;;5.75;;
20727;SDS011;10525;50.154;8.198;2023-04-25T06:11:10;17.63;;;5.68;;
20727;SDS011;10525;50.154;8.198;2023-04-25T06:13:37;10.23;;;5.43;;
20727;SDS011;10525;50.154;8.198;2023-04-25T06:16:06;15.02;;;5.70;;
20727;SDS011;10525;50.154;8.198;2023-04-25T06:18:33;20.58;;;6.10;;
20727;SDS011;10525;50.154;8.198;2023-04-25T06:21:00;7.10;;;5.10;;
20727;SDS011;10525;50.154;8.198;2023-04-25T06:23:27;8.32;;;4.60;;
20727;SDS011;10525;50.154;8.198;2023-04-25T06:25:54;12.75;;;5.45;;
20727;SDS011;10525;50.154;8.198;2023-04-25T06:28:21;13.77;;;5.20;;
20727;SDS011;10525;50.154;8.198;2023-04-25T06:30:49;8.57;;;4.40;;
20727;SDS011;10525;50.154;8.198;2023-04-25T06:33:17;18.17;;;5.63;;
20727;SDS011;10525;50.154;8.198;2023-04-25T06:35:45;10.85;;;5.35;;
20727;SDS011;10525;50.154;8.198;2023-04-25T06:38:12;4.35;;;3.95;;
20727;SDS011;10525;50.154;8.198;2023-04-25T06:40:39;9.70;;;4.88;;
20727;SDS011;10525;50.154;8.198;2023-04-25T06:43:06;9.73;;;4.07;;
20727;SDS011;10525;50.154;8.198;2023-04-25T06:45:34;9.82;;;4.38;;
20727;SDS011;10525;50.154;8.198;2023-04-25T06:48:01;13.25;;;4.43;;
20727;SDS011;10525;50.154;8.198;2023-04-25T06:50:29;12.85;;;4.43;;
20727;SDS011;10525;50.154;8.198;2023-04-25T06:52:56;11.73;;;4.43;;
20727;SDS011;10525;50.154;8.198;2023-04-25T06:55:23;9.27;;;4.50;;
20727;SDS011;10525;50.154;8.198;2023-04-25T06:57:50;7.05;;;3.65;;
20727;SDS011;10525;50.154;8.198;2023-04-25T07:00:18;11.90;;;5.07;;
20727;SDS011;10525;50.154;8.198;2023-04-25T07:02:45;5.90;;;4.80;;
20727;SDS011;10525;50.154;8.198;2023-04-25T07:05:12;6.50;;;4.30;;
20727;SDS011;10525;50.154;8.198;2023-04-25T07:07:40;6.55;;;4.20;;
20727;SDS011;10525;50.154;8.198;2023-04-25T07:10:07;14.07;;;4.78;;
20727;SDS011;10525;50.154;8.198;2023-04-25T07:12:35;8.57;;;3.67;;
20727;SDS011;10525;50.154;8.198;2023-04-25T07:15:02;12.00;;;3.60;;
20727;SDS011;10525;50.154;8.198;2023-04-25T07:17:31;5.57;;;3.92;;
20727;SDS011;10525;50.154;8.198;2023-04-25T07:19:59;5.75;;;4.60;;
20727;SDS011;10525;50.154;8.198;2023-04-25T07:22:26;4.40;;;3.63;;
20727;SDS011;10525;50.154;8.198;2023-04-25T07:24:54;5.15;;;3.85;;
20727;SDS011;10525;50.154;8.198;2023-04-25T07:27:22;3.78;;;3.05;;
20727;SDS011;10525;50.154;8.198;2023-04-25T07:29:49;4.22;;;3.80;;
20727;SDS011;10525;50.154;8.198;2023-04-25T07:32:16;4.50;;;3.33;;
20727;SDS011;10525;50.154;8.198;2023-04-25T07:34:43;11.48;;;4.03;;
20727;SDS011;10525;50.154;8.198;2023-04-25T07:37:10;4.97;;;3.30;;
20727;SDS011;10525;50.154;8.198;2023-04-25T07:39:37;4.22;;;3.55;;
20727;SDS011;10525;50.154;8.198;2023-04-25T07:42:05;4.53;;;3.40;;
20727;SDS011;10525;50.154;8.198;2023-04-25T07:44:33;4.68;;;3.33;;
20727;SDS011;10525;50.154;8.198;2023-04-25T07:47:03;3.50;;;3.20;;
20727;SDS011;10525;50.154;8.198;2023-04-25T07:49:31;10.70;;;4.50;;
20727;SDS011;10525;50.154;8.198;2023-04-25T07:52:00;5.45;;;3.20;;
20727;SDS011;10525;50.154;8.198;2023-04-25T07:54:27;4.28;;;3.05;;
20727;SDS011;10525;50.154;8.198;2023-04-25T07:56:54;4.65;;;3.35;;
20727;SDS011;10525;50.154;8.198;2023-04-25T07:59:23;6.30;;;3.25;;
20727;SDS011;10525;50.154;8.198;2023-04-25T08:01:50;3.47;;;3.17;;
20727;SDS011;10525;50.154;8.198;2023-04-25T08:04:17;4.45;;;2.72;;
20727;SDS011;10525;50.154;8.198;2023-04-25T08:06:44;6.63;;;3.42;;
20727;SDS011;10525;50.154;8.198;2023-04-25T08:09:12;9.40;;;3.45;;
20727;SDS011;10525;50.154;8.198;2023-04-25T08:11:40;7.80;;;3.47;;
20727;SDS011;10525;50.154;8.198;2023-04-25T08:14:08;5.60;;;4.32;;
20727;SDS011;10525;50.154;8.198;2023-04-25T08:16:36;7.25;;;4.20;;
20727;SDS011;10525;50.154;8.198;2023-04-25T08:19:03;5.03;;;3.63;;
20727;SDS011;10525;50.154;8.198;2023-04-25T08:21:30;10.35;;;4.55;;
20727;SDS011;10525;50.154;8.198;2023-04-25T08:23:57;7.57;;;4.43;;
20727;SDS011;10525;50.154;8.198;2023-04-25T08:26:25;9.30;;;4.75;;
20727;SDS011;10525;50.154;8.198;2023-04-25T08:28:52;5.65;;;4.20;;
20727;SDS011;10525;50.154;8.198;2023-04-25T08:31:19;4.53;;;4.18;;
20727;SDS011;10525;50.154;8.198;2023-04-25T08:33:48;5.53;;;4.55;;
20727;SDS011;10525;50.154;8.198;2023-04-25T08:36:16;9.63;;;4.68;;
20727;SDS011;10525;50.154;8.198;2023-04-25T08:38:43;11.20;;;4.47;;
20727;SDS011;10525;50.154;8.198;2023-04-25T08:41:11;5.63;;;4.93;;
20727;SDS011;10525;50.154;8.198;2023-04-25T08:43:38;7.05;;;4.80;;
20727;SDS011;10525;50.154;8.198;2023-04-25T08:46:09;10.38;;;4.88;;
20727;SDS011;10525;50.154;8.198;2023-04-25T08:48:36;8.43;;;4.70;;
20727;SDS011;10525;50.154;8.198;2023-04-25T08:51:05;11.65;;;5.57;;
20727;SDS011;10525;50.154;8.198;2023-04-25T08:53:33;6.68;;;5.38;;
20727;SDS011;10525;50.154;8.198;2023-04-25T08:56:01;7.05;;;5.18;;
20727;SDS011;10525;50.154;8.198;2023-04-25T08:58:28;6.15;;;4.53;;
20727;SDS011;10525;50.154;8.198;2023-04-25T09:00:55;10.75;;;5.35;;
20727;SDS011;10525;50.154;8.198;2023-04-25T09:03:22;9.77;;;4.82;;
20727;SDS011;10525;50.154;8.198;2023-04-25T09:05:49;8.63;;;4.50;;
20727;SDS011;10525;50.154;8.198;2023-04-25T09:08:19;8.05;;;4.80;;
20727;SDS011;10525;50.154;8.198;2023-04-25T09:10:46;5.47;;;4.80;;
20727;SDS011;10525;50.154;8.198;2023-04-25T09:13:13;4.88;;;4.47;;
20727;SDS011;10525;50.154;8.198;2023-04-25T09:15:47;8.63;;;5.07;;
20727;SDS011;10525;50.154;8.198;2023-04-25T09:18:21;8.23;;;5.10;;
20727;SDS011;10525;50.154;8.198;2023-04-25T09:20:49;9.07;;;5.45;;
20727;SDS011;10525;50.154;8.198;2023-04-25T09:23:17;7.53;;;5.47;;
20727;SDS011;10525;50.154;8.198;2023-04-25T09:25:48;10.65;;;5.55;;
20727;SDS011;10525;50.154;8.198;2023-04-25T09:28:15;8.77;;;5.50;;
20727;SDS011;10525;50.154;8.198;2023-04-25T09:30:42;9.48;;;5.72;;
20727;SDS011;10525;50.154;8.198;2023-04-25T09:33:10;13.52;;;6.28;;
20727;SDS011;10525;50.154;8.198;2023-04-25T09:35:39;11.13;;;5.75;;
20727;SDS011;10525;50.154;8.198;2023-04-25T09:38:10;9.07;;;5.70;;
20727;SDS011;10525;50.154;8.198;2023-04-25T09:40:41;7.03;;;5.32;;
20727;SDS011;10525;50.154;8.198;2023-04-25T09:43:15;8.45;;;5.18;;
20727;SDS011;10525;50.154;8.198;2023-04-25T09:45:45;9.73;;;5.00;;
20727;SDS011;10525;50.154;8.198;2023-04-25T09:48:16;12.32;;;5.75;;
20727;SDS011;10525;50.154;8.198;2023-04-25T09:50:43;14.77;;;6.72;;
20727;SDS011;10525;50.154;8.198;2023-04-25T09:53:11;9.23;;;5.03;;
20727;SDS011;10525;50.154;8.198;2023-04-25T09:55:38;10.75;;;4.75;;
20727;SDS011;10525;50.154;8.198;2023-04-25T09:58:06;7.72;;;4.45;;
20727;SDS011;10525;50.154;8.198;2023-04-25T10:00:36;5.07;;;4.28;;
20727;SDS011;10525;50.154;8.198;2023-04-25T10:03:05;5.80;;;4.63;;
20727;SDS011;10525;50.154;8.198;2023-04-25T10:05:32;13.48;;;4.97;;
20727;SDS011;10525;50.154;8.198;2023-04-25T10:08:02;7.03;;;4.78;;
20727;SDS011;10525;50.154;8.198;2023-04-25T10:10:29;7.68;;;4.47;;
20727;SDS011;10525;50.154;8.198;2023-04-25T10:13:01;14.10;;;4.13;;
20727;SDS011;10525;50.154;8.198;2023-04-25T10:15:28;10.68;;;4.70;;
20727;SDS011;10525;50.154;8.198;2023-04-25T10:17:57;9.32;;;4.63;;
20727;SDS011;10525;50.154;8.198;2023-04-25T10:20:25;6.40;;;4.32;;
20727;SDS011;10525;50.154;8.198;2023-04-25T10:22:53;5.03;;;4.40;;
20727;SDS011;10525;50.154;8.198;2023-04-25T10:25:21;10.32;;;4.68;;
20727;SDS011;10525;50.154;8.198;2023-04-25T10:27:49;8.50;;;4.70;;
20727;SDS011;10525;50.154;8.198;2023-04-25T10:30:16;6.95;;;3.97;;
20727;SDS011;10525;50.154;8.198;2023-04-25T10:32:45;8.07;;;3.95;;
20727;SDS011;10525;50.154;8.198;2023-04-25T10:35:14;9.95;;;4.55;;
20727;SDS011;10525;50.154;8.198;2023-04-25T10:38:00;12.63;;;5.47;;
20727;SDS011;10525;50.154;8.198;2023-04-25T10:40:29;4.90;;;3.83;;
20727;SDS011;10525;50.154;8.198;2023-04-25T10:43:33;6.13;;;3.88;;
20727;SDS011;10525;50.154;8.198;2023-04-25T10:45:52;18.15;;;4.15;;
20727;SDS011;10525;50.154;8.198;2023-04-25T10:48:24;11.10;;;4.40;;
20727;SDS011;10525;50.154;8.198;2023-04-25T10:50:58;7.03;;;4.22;;
20727;SDS011;10525;50.154;8.198;2023-04-25T10:53:33;5.53;;;3.60;;
20727;SDS011;10525;50.154;8.198;2023-04-25T10:56:00;15.60;;;4.13;;
20727;SDS011;10525;50.154;8.198;2023-04-25T10:58:27;6.25;;;4.15;;
20727;SDS011;10525;50.154;8.198;2023-04-25T11:00:54;13.60;;;4.10;;
20727;SDS011;10525;50.154;8.198;2023-04-25T11:03:22;7.15;;;4.32;;
20727;SDS011;10525;50.154;8.198;2023-04-25T11:05:51;7.95;;;4.07;;
20727;SDS011;10525;50.154;8.198;2023-04-25T11:08:32;12.63;;;3.63;;
20727;SDS011;10525;50.154;8.198;2023-04-25T11:11:03;7.53;;;4.45;;
20727;SDS011;10525;50.154;8.198;2023-04-25T11:13:31;4.63;;;3.00;;
20727;SDS011;10525;50.154;8.198;2023-04-25T11:15:58;5.57;;;3.45;;
20727;SDS011;10525;50.154;8.198;2023-04-25T11:18:26;6.55;;;3.50;;
20727;SDS011;10525;50.154;8.198;2023-04-25T11:20:53;5.38;;;3.58;;
20727;SDS011;10525;50.154;8.198;2023-04-25T11:23:21;5.68;;;3.55;;
20727;SDS011;10525;50.154;8.198;2023-04-25T11:25:48;9.95;;;3.60;;
20727;SDS011;10525;50.154;8.198;2023-04-25T11:28:20;13.50;;;3.67;;
20727;SDS011;10525;50.154;8.198;2023-04-25T11:30:48;9.55;;;3.47;;
20727;SDS011;10525;50.154;8.198;2023-04-25T11:33:15;7.95;;;3.42;;
20727;SDS011;10525;50.154;8.198;2023-04-25T11:35:42;11.95;;;3.65;;
20727;SDS011;10525;50.154;8.198;2023-04-25T11:38:10;8.63;;;3.28;;
20727;SDS011;10525;50.154;8.198;2023-04-25T11:40:38;5.25;;;3.15;;
20727;SDS011;10525;50.154;8.198;2023-04-25T11:43:05;11.23;;;3.53;;
20727;SDS011;10525;50.154;8.198;2023-04-25T11:45:33;7.68;;;3.03;;
20727;SDS011;10525;50.154;8.198;2023-04-25T11:48:01;9.27;;;4.15;;
20727;SDS011;10525;50.154;8.198;2023-04-25T11:50:28;3.50;;;2.72;;
20727;SDS011;10525;50.154;8.198;2023-04-25T11:52:56;5.65;;;3.35;;
20727;SDS011;10525;50.154;8.198;2023-04-25T11:55:23;9.65;;;3.58;;
20727;SDS011;10525;50.154;8.198;2023-04-25T11:57:52;7.57;;;3.33;;
20727;SDS011;10525;50.154;8.198;2023-04-25T12:00:20;5.10;;;3.15;;
20727;SDS011;10525;50.154;8.198;2023-04-25T12:02:48;9.45;;;3.40;;
20727;SDS011;10525;50.154;8.198;2023-04-25T12:05:17;4.15;;;3.42;;
20727;SDS011;10525;50.154;8.198;2023-04-25T12:07:44;7.75;;;3.35;;
20727;SDS011;10525;50.154;8.198;2023-04-25T12:10:12;8.02;;;3.05;;
20727;SDS011;10525;50.154;8.198;2023-04-25T12:12:41;5.63;;;2.75;;
20727;SDS011;10525;50.154;8.198;2023-04-25T12:15:10;15.88;;;4.80;;
20727;SDS011;10525;50.154;8.198;2023-04-25T12:17:38;10.40;;;3.47;;
20727;SDS011;10525;50.154;8.198;2023-04-25T12:20:05;9.35;;;3.15;;
20727;SDS011;10525;50.154;8.198;2023-04-25T12:22:33;5.72;;;3.30;;
20727;SDS011;10525;50.154;8.198;2023-04-25T12:25:01;7.72;;;3.20;;
20727;SDS011;10525;50.154;8.198;2023-04-25T12:27:30;11.43;;;3.55;;
20727;SDS011;10525;50.154;8.198;2023-04-25T12:29:57;9.57;;;3.70;;
20727;SDS011;10525;50.154;8.198;2023-04-25T12:32:26;13.23;;;3.22;;
20727;SDS011;10525;50.154;8.198;2023-04-25T12:34:53;12.00;;;3.58;;
20727;SDS011;10525;50.154;8.198;2023-04-25T12:37:20;10.05;;;3.10;;
20727;SDS011;10525;50.154;8.198;2023-04-25T12:39:47;13.55;;;3.40;;
20727;SDS011;10525;50.154;8.198;2023-04-25T12:42:15;9.35;;;2.90;;
20727;SDS011;10525;50.154;8.198;2023-04-25T12:44:42;7.53;;;3.35;;
20727;SDS011;10525;50.154;8.198;2023-04-25T12:47:11;6.50;;;3.40;;
20727;SDS011;10525;50.154;8.198;2023-04-25T12:49:39;13.20;;;2.92;;
20727;SDS011;10525;50.154;8.198;2023-04-25T12:52:06;9.30;;;3.42;;
20727;SDS011;10525;50.154;8.198;2023-04-25T12:54:33;6.10;;;3.55;;
20727;SDS011;10525;50.154;8.198;2023-04-25T12:57:00;9.75;;;3.42;;
20727;SDS011;10525;50.154;8.198;2023-04-25T12:59:28;5.55;;;3.20;;
20727;SDS011;10525;50.154;8.198;2023-04-25T13:01:55;7.30;;;3.00;;
20727;SDS011;10525;50.154;8.198;2023-04-25T13:04:22;4.63;;;2.88;;
20727;SDS011;10525;50.154;8.198;2023-04-25T13:06:51;5.40;;;3.03;;
20727;SDS011;10525;50.154;8.198;2023-04-25T13:09:18;8.52;;;3.22;;
20727;SDS011;10525;50.154;8.198;2023-04-25T13:11:45;8.18;;;3.33;;
20727;SDS011;10525;50.154;8.198;2023-04-25T13:14:12;5.93;;;3.75;;
20727;SDS011;10525;50.154;8.198;2023-04-25T13:16:40;8.30;;;3.50;;
20727;SDS011;10525;50.154;8.198;2023-04-25T13:19:07;4.97;;;3.38;;
20727;SDS011;10525;50.154;8.198;2023-04-25T13:21:36;13.93;;;3.80;;
20727;SDS011;10525;50.154;8.198;2023-04-25T13:24:05;4.32;;;3.20;;
20727;SDS011;10525;50.154;8.198;2023-04-25T13:26:32;4.63;;;3.03;;
20727;SDS011;10525;50.154;8.198;2023-04-25T13:28:59;9.07;;;2.92;;
20727;SDS011;10525;50.154;8.198;2023-04-25T13:31:28;6.18;;;3.10;;
20727;SDS011;10525;50.154;8.198;2023-04-25T13:33:55;8.85;;;3.20;;
20727;SDS011;10525;50.154;8.198;2023-04-25T13:36:22;8.88;;;3.30;;
20727;SDS011;10525;50.154;8.198;2023-04-25T13:38:49;11.50;;;4.07;;
20727;SDS011;10525;50.154;8.198;2023-04-25T13:41:18;3.65;;;2.78;;
20727;SDS011;10525;50.154;8.198;2023-04-25T13:43:45;4.60;;;2.75;;
20727;SDS011;10525;50.154;8.198;2023-04-25T13:46:13;5.38;;;2.65;;
20727;SDS011;10525;50.154;8.198;2023-04-25T13:48:41;6.63;;;2.58;;
20727;SDS011;10525;50.154;8.198;2023-04-25T13:51:12;2.50;;;2.40;;
20727;SDS011;10525;50.154;8.198;2023-04-25T13:53:39;8.55;;;2.70;;
20727;SDS011;10525;50.154;8.198;2023-04-25T13:56:06;2.92;;;2.70;;
20727;SDS011;10525;50.154;8.198;2023-04-25T13:58:34;7.32;;;2.90;;
20727;SDS011;10525;50.154;8.198;2023-04-25T14:01:01;4.40;;;2.90;;
20727;SDS011;10525;50.154;8.198;2023-04-25T14:03:29;3.63;;;2.70;;
20727;SDS011;10525;50.154;8.198;2023-04-25T14:05:56;5.72;;;2.95;;
20727;SDS011;10525;50.154;8.198;2023-04-25T14:08:23;2.63;;;2.53;;
20727;SDS011;10525;50.154;8.198;2023-04-25T14:10:51;6.85;;;3.13;;
20727;SDS011;10525;50.154;8.198;2023-04-25T14:13:18;8.82;;;2.72;;
20727;SDS011;10525;50.154;8.198;2023-04-25T14:15:46;4.97;;;2.75;;
20727;SDS011;10525;50.154;8.198;2023-04-25T14:18:15;4.93;;;2.83;;
20727;SDS011;10525;50.154;8.198;2023-04-25T14:20:42;6.60;;;2.78;;
20727;SDS011;10525;50.154;8.198;2023-04-25T14:23:09;6.65;;;3.10;;
20727;SDS011;10525;50.154;8.198;2023-04-25T14:25:36;6.90;;;2.80;;
20727;SDS011;10525;50.154;8.198;2023-04-25T14:28:03;4.45;;;3.05;;
20727;SDS011;10525;50.154;8.198;2023-04-25T14:30:31;4.53;;;3.00;;
20727;SDS011;10525;50.154;8.198;2023-04-25T14:32:59;11.55;;;3.05;;
20727;SDS011;10525;50.154;8.198;2023-04-25T14:35:26;9.32;;;2.92;;
20727;SDS011;10525;50.154;8.198;2023-04-25T14:37:53;4.88;;;2.45;;
20727;SDS011;10525;50.154;8.198;2023-04-25T14:40:21;7.25;;;2.85;;
20727;SDS011;10525;50.154;8.198;2023-04-25T14:42:48;6.55;;;3.00;;